Portada
METAR-TAF:

METAR-TAF

Aeroports :

Aeroport de Bèrgam-Orio al Serio

Bèrgam, Itàlia

latitud: 45-40N, longitud: 009-42E, altitud: 238 m

Observació

L'informe es va fer fa 13 minuts, a les 15:20 UTC
Vent 2 kt amb direcció variable
Temperatura 6°C
Humitat 87%
Pressió 1006 hPa
Visibilitat: 3500 m
Escasses núvols a una alçada de 1000 ft
boirina

METAR: LIME 091520Z VRB02KT 3500 BR FEW010 06/04 Q1006 NOSIG

Hora: 16:33 (15:33 UTC)

Pronòstic

L'informe es va fer fa 1 hora i 20 minuts, a les 14:13 UTC
Pronòstic vàlid del 09 a les 14 UTC al 10 a les 12 UTC
Vent 5 kt amb direcció variable
Visibilitat: 2500 m
Cel ennuvolat a una alçada de 5000 ft
boirina
Evolucionant progressivament
l' 09 a les 14 UTC al 09 a les 17 UTC
Visibilitat: 7000 m

TAF: LIME 091413Z 0914/1012 VRB05KT 2500 BR BKN050 BECMG 0914/0917 7000

Observacions i pronòstics meteorològics de més de 4000 aeroports (METAR i TAF).

Les estacions disponibles són els punts grocs i vermells al mapa.

Posi el ratolí al punt desitjat per veure el nom de l'estació.

Feu clic per veure les observacions i els pronòstics meteorològics.

Per canviar el mapa: feu clic els botons verds amb una creu de color negre per apropar; al botó verd amb un guió per allunyar la imatge; o en les fletxes verdes per a mapes adjacents.


METAR-TAF: